createdAt,value
2018-06-18T00:00:36.271Z,1011.15
2018-06-18T00:01:16.614Z,1011.15
2018-06-18T00:01:57.034Z,1011.15
2018-06-18T00:02:37.433Z,1011.14
2018-06-18T00:03:17.868Z,1011.11
2018-06-18T00:03:58.239Z,1011.12
2018-06-18T00:04:38.616Z,1011.13
2018-06-18T00:05:18.998Z,1011.14
2018-06-18T00:05:59.398Z,1011.14
2018-06-18T00:06:39.823Z,1011.12
2018-06-18T00:07:20.261Z,1011.11
2018-06-18T00:08:00.643Z,1011.14
2018-06-18T00:08:41.081Z,1011.12
2018-06-18T00:09:21.475Z,1011.13
2018-06-18T00:10:01.860Z,1011.13
2018-06-18T00:10:42.282Z,1011.12
2018-06-18T00:11:22.682Z,1011.1
2018-06-18T00:12:03.098Z,1011.12
2018-06-18T00:12:43.438Z,1011.15
2018-06-18T00:13:23.837Z,1011.16
2018-06-18T00:14:04.254Z,1011.18
2018-06-18T00:14:44.675Z,1011.22
2018-06-18T00:15:25.084Z,1011.24
2018-06-18T00:16:05.506Z,1011.25
2018-06-18T00:16:45.927Z,1011.24
2018-06-18T00:17:26.325Z,1011.21
2018-06-18T00:18:06.750Z,1011.22
2018-06-18T00:18:47.130Z,1011.17
2018-06-18T00:19:27.531Z,1011.23
2018-06-18T00:20:07.928Z,1011.23
2018-06-18T00:20:48.406Z,1011.22
2018-06-18T00:21:28.752Z,1011.18
2018-06-18T00:22:09.163Z,1011.21
2018-06-18T00:22:49.582Z,1011.25
2018-06-18T00:23:29.966Z,1011.24
2018-06-18T00:24:10.330Z,1011.27
2018-06-18T00:24:50.798Z,1011.31
2018-06-18T00:25:31.191Z,1011.28
2018-06-18T00:26:11.618Z,1011.29
2018-06-18T00:26:51.975Z,1011.32
2018-06-18T00:27:32.436Z,1011.28
2018-06-18T00:28:12.804Z,1011.27
2018-06-18T00:28:53.215Z,1011.3
2018-06-18T00:29:33.577Z,1011.3
2018-06-18T00:30:13.995Z,1011.26
2018-06-18T00:30:54.439Z,1011.2
2018-06-18T00:31:34.809Z,1011.18
2018-06-18T00:32:15.300Z,1011.17
2018-06-18T00:32:55.686Z,1011.16
2018-06-18T00:33:36.073Z,1011.1
2018-06-18T00:34:16.467Z,1011.12
2018-06-18T00:34:56.861Z,1011.09
2018-06-18T00:35:37.273Z,1011.12
2018-06-18T00:36:17.651Z,1011.06
2018-06-18T00:36:58.069Z,1011.07
2018-06-18T00:37:38.526Z,1011.02
2018-06-18T00:38:18.905Z,1011.02
2018-06-18T00:38:59.257Z,1011.05
2018-06-18T00:39:39.743Z,1011.03
2018-06-18T00:40:20.096Z,1011.01
2018-06-18T00:41:00.542Z,1011.02
2018-06-18T00:41:40.895Z,1011.04
2018-06-18T00:42:21.343Z,1011.01
2018-06-18T00:43:01.697Z,1011.07
2018-06-18T00:43:42.121Z,1011.05
2018-06-18T00:44:22.518Z,1011.03
2018-06-18T00:45:02.922Z,1011.04
2018-06-18T00:45:43.289Z,1011.01
2018-06-18T00:46:23.703Z,1011
2018-06-18T00:47:04.107Z,1010.95
2018-06-18T00:47:44.533Z,1011
2018-06-18T00:48:24.947Z,1010.98
2018-06-18T00:49:05.327Z,1010.97
2018-06-18T00:49:45.787Z,1010.96
2018-06-18T00:50:26.175Z,1010.96
2018-06-18T00:51:06.568Z,1010.97
2018-06-18T00:51:47.019Z,1010.98
2018-06-18T00:52:27.438Z,1011.03
2018-06-18T00:53:07.805Z,1011.05
2018-06-18T00:53:48.170Z,1011.02
2018-06-18T01:20:10.052Z,1010.78
2018-06-18T01:20:50.380Z,1010.77
2018-06-18T01:21:30.750Z,1010.78
2018-06-18T01:22:11.242Z,1010.79
2018-06-18T01:22:51.616Z,1010.82
2018-06-18T01:23:32.026Z,1010.85
2018-06-18T01:24:12.427Z,1010.86
2018-06-18T01:24:52.827Z,1010.83
2018-06-18T01:25:33.216Z,1010.86
2018-06-18T01:26:13.594Z,1010.9
2018-06-18T01:26:53.984Z,1010.88
2018-06-18T01:27:34.349Z,1010.91
2018-06-18T01:28:14.712Z,1010.93
2018-06-18T01:28:55.152Z,1010.91
2018-06-18T01:29:35.526Z,1010.88
2018-06-18T01:30:15.885Z,1010.86
2018-06-18T01:30:56.312Z,1010.87
2018-06-18T01:31:36.681Z,1010.9
2018-06-18T01:32:17.098Z,1010.9
2018-06-18T01:32:57.546Z,1010.87
2018-06-18T01:33:37.918Z,1010.89
2018-06-18T01:34:18.378Z,1010.83
2018-06-18T01:34:58.763Z,1010.87
2018-06-18T01:35:39.179Z,1010.9
2018-06-18T01:36:19.590Z,1010.87
2018-06-18T01:36:59.987Z,1010.85
2018-06-18T01:37:40.409Z,1010.84
2018-06-18T01:38:20.809Z,1010.88
2018-06-18T01:39:01.253Z,1010.9
2018-06-18T01:39:41.587Z,1010.88
2018-06-18T01:40:21.981Z,1010.89
2018-06-18T01:41:02.316Z,1010.88
2018-06-18T01:41:42.762Z,1010.83
2018-06-18T01:42:23.187Z,1010.85
2018-06-18T01:43:03.560Z,1010.84
2018-06-18T01:43:44.006Z,1010.84
2018-06-18T01:44:24.393Z,1010.86
2018-06-18T01:45:04.752Z,1010.81
2018-06-18T01:45:45.214Z,1010.77
2018-06-18T01:46:25.591Z,1010.77
2018-06-18T01:47:05.987Z,1010.79
2018-06-18T01:47:46.408Z,1010.77
2018-06-18T01:48:26.792Z,1010.8
2018-06-18T01:49:07.187Z,1010.8
2018-06-18T01:49:47.533Z,1010.82
2018-06-18T01:50:27.957Z,1010.84
2018-06-18T01:51:08.373Z,1010.91
2018-06-18T01:51:48.816Z,1010.9
2018-06-18T01:52:29.249Z,1010.9
2018-06-18T01:53:09.607Z,1010.91
2018-06-18T01:53:50.063Z,1010.92
2018-06-18T01:54:30.429Z,1010.94
2018-06-18T01:55:10.829Z,1010.89
2018-06-18T01:55:51.278Z,1010.93
2018-06-18T01:56:31.651Z,1010.95
2018-06-18T01:57:12.030Z,1010.91
2018-06-18T01:57:52.427Z,1010.92
2018-06-18T01:58:32.823Z,1010.93
2018-06-18T01:59:13.271Z,1010.92
2018-06-18T01:59:53.683Z,1010.94
2018-06-18T02:00:34.126Z,1010.95
2018-06-18T02:01:14.494Z,1010.94
2018-06-18T02:01:54.867Z,1010.94
2018-06-18T02:02:35.258Z,1010.93
2018-06-18T02:03:15.700Z,1010.93
2018-06-18T02:03:56.086Z,1010.93
2018-06-18T02:48:11.713Z,1010.63
2018-06-18T02:48:52.051Z,1010.64
2018-06-18T02:49:32.499Z,1010.63
2018-06-18T02:50:12.923Z,1010.66
2018-06-18T02:50:53.286Z,1010.67
2018-06-18T02:51:33.690Z,1010.64
2018-06-18T02:52:14.111Z,1010.71
2018-06-18T02:52:54.530Z,1010.68
2018-06-18T02:53:34.919Z,1010.71
2018-06-18T03:22:34.331Z,1010.84
2018-06-18T03:28:41.693Z,1010.78
2018-06-18T03:29:22.102Z,1010.8
2018-06-18T03:30:02.495Z,1010.81
2018-06-18T03:44:36.808Z,1010.87
2018-06-18T03:45:17.112Z,1010.87
2018-06-18T03:45:57.525Z,1010.87
2018-06-18T03:46:37.979Z,1010.87
2018-06-18T03:47:18.337Z,1010.84
2018-06-18T03:47:58.747Z,1010.87
2018-06-18T03:48:39.128Z,1010.92
2018-06-18T03:49:19.616Z,1010.91
2018-06-18T03:50:00.026Z,1010.91
2018-06-18T03:50:40.381Z,1010.93
2018-06-18T03:51:20.833Z,1010.9
2018-06-18T03:52:01.234Z,1010.92
2018-06-18T04:43:30.965Z,1010.99
2018-06-18T04:44:11.345Z,1011.07
2018-06-18T04:44:51.818Z,1011
2018-06-18T04:45:32.164Z,1011.01
2018-06-18T04:46:12.617Z,1011.03
2018-06-18T04:46:52.971Z,1011.03
2018-06-18T04:47:33.373Z,1011.07
2018-06-18T04:48:13.806Z,1011.06
2018-06-18T04:48:54.189Z,1011.05
2018-06-18T04:49:34.585Z,1011.04
2018-06-18T04:50:14.989Z,1011.04
2018-06-18T04:50:55.382Z,1011.01
2018-06-18T04:51:35.790Z,1011.01
2018-06-18T04:52:16.157Z,1011.01
2018-06-18T04:52:56.602Z,1011.02
2018-06-18T04:53:36.968Z,1010.99
2018-06-18T04:54:17.436Z,1011.01
2018-06-18T04:54:57.802Z,1010.98
2018-06-18T04:55:38.186Z,1011
2018-06-18T04:56:18.571Z,1011.07
2018-06-18T04:56:58.979Z,1011.05
2018-06-18T04:57:39.408Z,1011
2018-06-18T04:58:19.778Z,1011
2018-06-18T04:59:00.179Z,1011
2018-06-18T04:59:40.619Z,1011.03
2018-06-18T05:00:21.013Z,1011
2018-06-18T05:01:01.485Z,1011.03
2018-06-18T05:01:41.855Z,1010.99
2018-06-18T05:02:22.287Z,1011.04
2018-06-18T05:03:02.672Z,1011.05
2018-06-18T05:03:43.077Z,1011.05
2018-06-18T05:04:23.504Z,1011.05
2018-06-18T05:05:03.893Z,1011.04
2018-06-18T05:05:44.302Z,1011.04
2018-06-18T05:06:24.730Z,1011.08
2018-06-18T05:07:05.121Z,1011.09
2018-06-18T05:07:45.552Z,1011.06
2018-06-18T05:08:25.909Z,1011.08
2018-06-18T05:09:06.296Z,1011.08
2018-06-18T05:09:46.697Z,1011.09
2018-06-18T05:10:27.071Z,1011.09
2018-06-18T05:11:07.487Z,1011.12
2018-06-18T05:11:47.867Z,1011.13
2018-06-18T05:12:28.277Z,1011.14
2018-06-18T05:13:08.746Z,1011.14
2018-06-18T05:13:49.195Z,1011.18
2018-06-18T05:14:29.644Z,1011.18
2018-06-18T05:15:10.009Z,1011.16
2018-06-18T05:15:50.394Z,1011.18
2018-06-18T05:16:30.844Z,1011.2
2018-06-18T05:17:11.250Z,1011.2
2018-06-18T05:17:51.654Z,1011.19
2018-06-18T05:18:32.002Z,1011.17
2018-06-18T05:19:12.444Z,1011.18
2018-06-18T05:19:52.912Z,1011.16
2018-06-18T05:20:33.314Z,1011.21
2018-06-18T05:21:13.755Z,1011.17
2018-06-18T05:21:54.146Z,1011.18
2018-06-18T05:22:34.619Z,1011.16
2018-06-18T05:23:14.947Z,1011.17
2018-06-18T05:23:55.375Z,1011.19
2018-06-18T05:24:35.793Z,1011.16
2018-06-18T05:25:16.181Z,1011.16
2018-06-18T05:25:57.457Z,1011.16
2018-06-18T05:26:37.856Z,1011.15
2018-06-18T05:27:18.244Z,1011.16
2018-06-18T05:27:58.667Z,1011.16
2018-06-18T05:28:39.063Z,1011.15
2018-06-18T05:29:19.480Z,1011.17
2018-06-18T05:29:59.851Z,1011.18
2018-06-18T05:30:40.279Z,1011.16
2018-06-18T05:31:20.698Z,1011.17
2018-06-18T05:32:01.132Z,1011.21
2018-06-18T05:32:41.512Z,1011.19
2018-06-18T05:41:06.755Z,1011.26
2018-06-18T05:41:47.186Z,1011.24
2018-06-18T05:42:27.565Z,1011.27
2018-06-18T05:43:07.957Z,1011.26
2018-06-18T05:43:48.372Z,1011.29
2018-06-18T05:44:28.810Z,1011.27
2018-06-18T05:45:09.465Z,1011.27
2018-06-18T05:45:49.860Z,1011.23
2018-06-18T05:46:30.546Z,1011.21
2018-06-18T05:47:11.026Z,1011.22
2018-06-18T05:47:51.389Z,1011.25
2018-06-18T05:48:31.855Z,1011.23
2018-06-18T05:49:12.269Z,1011.21
2018-06-18T05:49:52.670Z,1011.2
2018-06-18T05:50:33.235Z,1011.18
2018-06-18T05:51:13.562Z,1011.2
2018-06-18T05:51:54.018Z,1011.23
2018-06-18T05:52:34.495Z,1011.21
2018-06-18T05:53:14.839Z,1011.25
2018-06-18T05:53:55.244Z,1011.23
2018-06-18T05:54:35.717Z,1011.25
2018-06-18T05:55:16.088Z,1011.24
2018-06-18T05:55:56.513Z,1011.29
2018-06-18T05:56:36.949Z,1011.27
2018-06-18T05:57:17.571Z,1011.28
2018-06-18T05:57:57.825Z,1011.27
2018-06-18T05:58:38.213Z,1011.26
2018-06-18T05:59:18.648Z,1011.23
2018-06-18T05:59:59.971Z,1011.25
2018-06-18T06:00:39.644Z,1011.27
2018-06-18T06:01:20.126Z,1011.28
2018-06-18T06:02:00.491Z,1011.33
2018-06-18T06:02:40.901Z,1011.27
2018-06-18T06:03:21.280Z,1011.3
2018-06-18T06:04:01.740Z,1011.33
2018-06-18T06:04:42.157Z,1011.31
2018-06-18T06:05:22.510Z,1011.31
2018-06-18T06:06:02.981Z,1011.28
2018-06-18T06:06:43.328Z,1011.28
2018-06-18T06:07:23.734Z,1011.29
2018-06-18T06:08:04.156Z,1011.31
2018-06-18T06:08:44.576Z,1011.37
2018-06-18T06:09:24.957Z,1011.35
2018-06-18T06:10:05.376Z,1011.36
2018-06-18T06:10:45.762Z,1011.33
2018-06-18T06:11:26.186Z,1011.3
2018-06-18T06:12:06.606Z,1011.33
2018-06-18T06:12:47.093Z,1011.33
2018-06-18T06:13:27.407Z,1011.34
2018-06-18T06:14:07.797Z,1011.29
2018-06-18T06:16:41.274Z,1011.27
2018-06-18T06:17:21.820Z,1011.29
2018-06-18T06:18:02.402Z,1011.24
2018-06-18T06:18:42.865Z,1011.26
2018-06-18T06:19:23.321Z,1011.27
2018-06-18T06:20:03.723Z,1011.3
2018-06-18T06:20:47.924Z,1011.31
2018-06-18T06:21:25.939Z,1011.28
2018-06-18T06:22:06.979Z,1011.32
2018-06-18T06:22:47.705Z,1011.31
2018-06-18T06:23:28.465Z,1011.32
2018-06-18T06:24:09.792Z,1011.31
2018-06-18T06:24:50.626Z,1011.37
2018-06-18T06:25:31.436Z,1011.37
2018-06-18T06:26:12.472Z,1011.4
2018-06-18T06:26:53.381Z,1011.34
2018-06-18T06:27:34.628Z,1011.35
2018-06-18T06:28:15.789Z,1011.36
2018-06-18T06:28:58.031Z,1011.35
2018-06-18T06:29:38.121Z,1011.37
2018-06-18T06:30:18.430Z,1011.35
2018-06-18T06:30:59.014Z,1011.37
2018-06-18T06:31:40.210Z,1011.41
2018-06-18T06:32:20.682Z,1011.37
2018-06-18T06:33:01.073Z,1011.35
2018-06-18T06:33:41.533Z,1011.4
2018-06-18T06:34:21.933Z,1011.41
2018-06-18T06:35:02.361Z,1011.37
2018-06-18T06:35:42.841Z,1011.35
2018-06-18T06:36:23.216Z,1011.36
2018-06-18T06:37:03.694Z,1011.31
2018-06-18T06:37:44.068Z,1011.34
2018-06-18T06:38:24.518Z,1011.36
2018-06-18T06:39:04.939Z,1011.3
2018-06-18T06:39:45.417Z,1011.35
2018-06-18T06:40:25.798Z,1011.32
2018-06-18T06:41:06.330Z,1011.36
2018-06-18T06:41:46.719Z,1011.33
2018-06-18T06:42:27.466Z,1011.35
2018-06-18T06:43:08.057Z,1011.31
2018-06-18T06:43:48.543Z,1011.33
2018-06-18T06:44:29.786Z,1011.35
2018-06-18T06:45:10.285Z,1011.37
2018-06-18T06:45:51.550Z,1011.34
2018-06-18T06:46:32.355Z,1011.36
2018-06-18T06:47:12.900Z,1011.37
2018-06-18T06:47:53.507Z,1011.37
2018-06-18T06:48:34.127Z,1011.41
2018-06-18T06:50:48.649Z,1011.41
2018-06-18T06:53:17.956Z,1011.43
2018-06-18T06:53:58.724Z,1011.48
2018-06-18T06:54:40.654Z,1011.43
2018-06-18T06:55:22.194Z,1011.46
2018-06-18T06:56:04.628Z,1011.5
2018-06-18T06:56:46.802Z,1011.48
2018-06-18T06:57:29.492Z,1011.47
2018-06-18T06:58:10.866Z,1011.52
2018-06-18T06:58:51.996Z,1011.52
2018-06-18T06:59:33.174Z,1011.53
2018-06-18T07:02:05.012Z,1011.59
2018-06-18T07:02:48.458Z,1011.59
2018-06-18T07:03:29.753Z,1011.59
2018-06-18T07:04:11.689Z,1011.57
2018-06-18T07:04:54.574Z,1011.6
2018-06-18T07:05:35.342Z,1011.58
2018-06-18T07:06:17.394Z,1011.6
2018-06-18T07:06:58.225Z,1011.67
2018-06-18T07:07:40.036Z,1011.71
2018-06-18T07:08:20.803Z,1011.66
2018-06-18T07:09:02.527Z,1011.7
2018-06-18T07:09:58.524Z,1011.71
2018-06-18T07:10:39.327Z,1011.74
2018-06-18T07:11:19.708Z,1011.76
2018-06-18T07:12:00.574Z,1011.74
2018-06-18T07:12:41.080Z,1011.74
2018-06-18T07:13:28.565Z,1011.76
2018-06-18T07:14:08.944Z,1011.76
2018-06-18T07:14:49.556Z,1011.74
2018-06-18T07:15:30.536Z,1011.7
2018-06-18T07:16:10.768Z,1011.69
2018-06-18T07:16:53.440Z,1011.68
2018-06-18T07:17:34.551Z,1011.7
2018-06-18T07:18:15.150Z,1011.7
2018-06-18T07:18:55.717Z,1011.75
2018-06-18T07:19:36.247Z,1011.69
2018-06-18T07:20:17.417Z,1011.68
2018-06-18T07:20:57.943Z,1011.72
2018-06-18T07:21:38.786Z,1011.69
2018-06-18T07:22:19.043Z,1011.72
2018-06-18T07:22:59.565Z,1011.71
2018-06-18T07:23:40.569Z,1011.74
2018-06-18T07:24:21.601Z,1011.76
2018-06-18T07:25:02.987Z,1011.75
2018-06-18T07:25:44.400Z,1011.74
2018-06-18T07:26:24.877Z,1011.74
2018-06-18T07:27:06.961Z,1011.72
2018-06-18T07:27:48.022Z,1011.71
2018-06-18T07:28:28.846Z,1011.68
2018-06-18T07:29:11.049Z,1011.65
2018-06-18T07:29:51.521Z,1011.7
2018-06-18T07:30:33.103Z,1011.74
2018-06-18T07:31:13.549Z,1011.71
2018-06-18T07:31:54.144Z,1011.73
2018-06-18T07:32:34.530Z,1011.71
2018-06-18T07:33:14.992Z,1011.73
2018-06-18T07:33:55.418Z,1011.72
2018-06-18T07:34:36.073Z,1011.72
2018-06-18T07:35:16.824Z,1011.73
2018-06-18T07:35:57.313Z,1011.69
2018-06-18T07:36:37.801Z,1011.71
2018-06-18T07:37:18.488Z,1011.71
2018-06-18T07:37:58.967Z,1011.69
2018-06-18T07:38:39.652Z,1011.67
2018-06-18T07:39:22.701Z,1011.72
2018-06-18T07:40:04.389Z,1011.7
2018-06-18T07:40:45.430Z,1011.69
2018-06-18T07:41:27.483Z,1011.73
2018-06-18T07:42:09.423Z,1011.69
2018-06-18T07:42:50.378Z,1011.71
2018-06-18T07:43:32.840Z,1011.71
2018-06-18T07:44:15.940Z,1011.7
2018-06-18T07:44:57.325Z,1011.72
2018-06-18T07:45:39.568Z,1011.72
2018-06-18T07:46:19.625Z,1011.72
2018-06-18T07:47:00.491Z,1011.75
2018-06-18T07:47:41.225Z,1011.74
2018-06-18T07:48:23.323Z,1011.7
2018-06-18T07:49:04.153Z,1011.73
2018-06-18T07:49:46.490Z,1011.77
2018-06-18T07:50:26.822Z,1011.76
2018-06-18T07:53:07.847Z,1011.78
2018-06-18T07:53:58.131Z,1011.77
2018-06-18T07:54:38.941Z,1011.76
2018-06-18T07:55:19.802Z,1011.74
2018-06-18T07:56:01.271Z,1011.74
2018-06-18T07:56:41.815Z,1011.74
2018-06-18T07:57:22.196Z,1011.76
2018-06-18T07:58:02.740Z,1011.75
2018-06-18T07:58:44.492Z,1011.78
2018-06-18T07:59:25.297Z,1011.71
2018-06-18T08:00:05.708Z,1011.7
2018-06-18T08:00:47.666Z,1011.71
2018-06-18T08:01:29.394Z,1011.66
2018-06-18T08:02:09.529Z,1011.7
2018-06-18T08:02:50.916Z,1011.63
2018-06-18T08:03:31.477Z,1011.61
2018-06-18T08:04:12.037Z,1011.63
2018-06-18T08:04:53.330Z,1011.58
2018-06-18T08:05:33.869Z,1011.63
2018-06-18T08:06:14.525Z,1011.54
2018-06-18T08:06:54.939Z,1011.59
2018-06-18T08:07:35.968Z,1011.59
2018-06-18T08:08:19.015Z,1011.58
2018-06-18T08:08:59.529Z,1011.55
2018-06-18T08:09:41.215Z,1011.57
2018-06-18T08:10:22.775Z,1011.56
2018-06-18T08:11:04.511Z,1011.52
2018-06-18T08:11:44.880Z,1011.51
2018-06-18T08:12:25.331Z,1011.55
2018-06-18T08:13:06.344Z,1011.49
2018-06-18T08:13:47.091Z,1011.5
2018-06-18T08:14:27.159Z,1011.46
2018-06-18T08:15:08.016Z,1011.45
2018-06-18T08:15:48.434Z,1011.49
2018-06-18T08:16:28.963Z,1011.49
2018-06-18T08:17:11.570Z,1011.45
2018-06-18T08:17:52.977Z,1011.46
2018-06-18T08:18:34.330Z,1011.45
2018-06-18T08:19:14.905Z,1011.44
2018-06-18T08:19:55.357Z,1011.44
2018-06-18T08:20:41.675Z,1011.43
2018-06-18T08:21:22.238Z,1011.46
2018-06-18T08:22:03.332Z,1011.49
2018-06-18T08:22:45.967Z,1011.49
2018-06-18T08:23:26.784Z,1011.53
2018-06-18T08:24:07.890Z,1011.55
2018-06-18T08:24:48.554Z,1011.56
2018-06-18T08:25:29.394Z,1011.57
2018-06-18T08:26:12.064Z,1011.51
2018-06-18T08:26:53.118Z,1011.52
2018-06-18T08:27:34.700Z,1011.55
2018-06-18T08:28:15.090Z,1011.5
2018-06-18T08:28:55.954Z,1011.52
2018-06-18T08:29:38.141Z,1011.61
2018-06-18T08:30:19.931Z,1011.56
2018-06-18T08:31:01.087Z,1011.53
2018-06-18T08:31:42.265Z,1011.54
2018-06-18T08:32:22.985Z,1011.51
2018-06-18T08:33:03.898Z,1011.51
2018-06-18T08:33:45.350Z,1011.52
2018-06-18T08:34:26.554Z,1011.57
2018-06-18T08:35:09.272Z,1011.52
2018-06-18T08:35:49.949Z,1011.52
2018-06-18T08:36:31.264Z,1011.54
2018-06-18T08:37:11.684Z,1011.53
2018-06-18T08:37:52.550Z,1011.5
2018-06-18T08:38:32.896Z,1011.54
2018-06-18T08:39:13.535Z,1011.58
2018-06-18T08:39:54.497Z,1011.61
2018-06-18T08:40:35.229Z,1011.59
2018-06-18T08:41:15.757Z,1011.61
2018-06-18T08:41:56.367Z,1011.59
2018-06-18T08:42:39.405Z,1011.62
2018-06-18T08:43:20.272Z,1011.61
2018-06-18T08:44:01.137Z,1011.57
2018-06-18T08:44:41.703Z,1011.55
2018-06-18T08:45:22.414Z,1011.56
2018-06-18T08:46:03.707Z,1011.61
2018-06-18T08:46:44.834Z,1011.58
2018-06-18T08:47:25.427Z,1011.71
2018-06-18T08:48:07.978Z,1011.64
2018-06-18T08:48:48.509Z,1011.62
2018-06-18T08:49:30.307Z,1011.68
2018-06-18T08:50:13.335Z,1011.67
2018-06-18T08:50:54.331Z,1011.68
2018-06-18T08:51:34.649Z,1011.68
2018-06-18T08:52:15.416Z,1011.69
2018-06-18T08:52:56.134Z,1011.68
2018-06-18T08:53:36.673Z,1011.66
2018-06-18T08:54:18.096Z,1011.63
2018-06-18T08:54:59.081Z,1011.59
2018-06-18T08:55:40.332Z,1011.56
2018-06-18T08:56:20.417Z,1011.56
2018-06-18T08:57:01.906Z,1011.5
2018-06-18T08:57:42.167Z,1011.54
2018-06-18T08:58:23.196Z,1011.49
2018-06-18T08:59:05.841Z,1011.54
2018-06-18T08:59:45.824Z,1011.5
2018-06-18T09:00:29.933Z,1011.52
2018-06-18T09:01:12.643Z,1011.54
2018-06-18T09:06:13.402Z,1011.53
2018-06-18T09:06:54.511Z,1011.52
2018-06-18T09:07:36.828Z,1011.55
2018-06-18T09:08:17.657Z,1011.54
2018-06-18T09:09:00.020Z,1011.51
2018-06-18T09:09:41.023Z,1011.52
2018-06-18T09:10:22.687Z,1011.58
2018-06-18T09:11:03.059Z,1011.54
2018-06-18T09:11:44.233Z,1011.51
2018-06-18T09:12:25.563Z,1011.51
2018-06-18T09:13:05.847Z,1011.53
2018-06-18T09:13:47.391Z,1011.59
2018-06-18T09:14:27.688Z,1011.5
2018-06-18T09:15:09.403Z,1011.46
2018-06-18T09:15:49.813Z,1011.58
2018-06-18T09:16:30.968Z,1011.55
2018-06-18T09:17:11.701Z,1011.56
2018-06-18T09:17:53.456Z,1011.51
2018-06-18T09:18:33.914Z,1011.57
2018-06-18T09:21:26.151Z,1011.49
2018-06-18T09:22:07.205Z,1011.49
2018-06-18T09:22:47.984Z,1011.54
2018-06-18T09:23:29.308Z,1011.51
2018-06-18T09:24:10.884Z,1011.53
2018-06-18T09:24:52.388Z,1011.51
2018-06-18T09:25:33.045Z,1011.46
2018-06-18T09:26:14.400Z,1011.46
2018-06-18T09:26:55.400Z,1011.47
2018-06-18T09:27:35.799Z,1011.47
2018-06-18T09:28:16.519Z,1011.48
2018-06-18T09:28:57.999Z,1011.48
2018-06-18T09:29:38.739Z,1011.43
2018-06-18T09:30:20.412Z,1011.47
2018-06-18T09:31:02.169Z,1011.48
2018-06-18T09:31:42.599Z,1011.48
2018-06-18T09:32:23.352Z,1011.51
2018-06-18T09:33:03.752Z,1011.51
2018-06-18T09:33:45.256Z,1011.47
2018-06-18T09:34:27.097Z,1011.5
2018-06-18T09:35:08.772Z,1011.48
2018-06-18T09:35:48.267Z,1011.51
2018-06-18T09:36:29.148Z,1011.52
2018-06-18T09:37:10.010Z,1011.44
2018-06-18T09:37:50.646Z,1011.54
2018-06-18T09:38:32.042Z,1011.57
2018-06-18T09:39:12.601Z,1011.51
2018-06-18T09:39:54.411Z,1011.57
2018-06-18T09:40:35.489Z,1011.58
2018-06-18T09:41:17.957Z,1011.58
2018-06-18T09:42:01.991Z,1011.59
2018-06-18T09:42:42.904Z,1011.61
2018-06-18T09:43:23.656Z,1011.6
2018-06-18T09:44:03.916Z,1011.61
2018-06-18T09:44:45.420Z,1011.6
2018-06-18T09:45:25.244Z,1011.57
2018-06-18T09:46:07.916Z,1011.54
2018-06-18T09:46:48.874Z,1011.59
2018-06-18T09:47:30.090Z,1011.57
2018-06-18T09:48:11.329Z,1011.55
2018-06-18T09:48:52.597Z,1011.57
2018-06-18T09:49:32.417Z,1011.56
2018-06-18T09:50:12.978Z,1011.57
2018-06-18T09:50:53.522Z,1011.53
2018-06-18T09:51:35.445Z,1011.53
2018-06-18T09:52:15.434Z,1011.58
2018-06-18T09:52:56.756Z,1011.59
2018-06-18T09:53:36.474Z,1011.54
2018-06-18T09:54:17.318Z,1011.6
2018-06-18T09:54:57.570Z,1011.61
2018-06-18T09:55:39.196Z,1011.58
2018-06-18T09:56:20.217Z,1011.57
2018-06-18T09:57:00.805Z,1011.61
2018-06-18T09:57:41.958Z,1011.6
2018-06-18T09:58:22.507Z,1011.61
2018-06-18T10:00:42.013Z,1011.58
2018-06-18T10:01:27.240Z,1011.55
2018-06-18T10:02:07.566Z,1011.49
2018-06-18T10:02:49.537Z,1011.46
2018-06-18T10:03:30.328Z,1011.47
2018-06-18T10:04:11.261Z,1011.44
2018-06-18T10:04:53.603Z,1011.42
2018-06-18T10:45:05.076Z,1011.37
2018-06-18T10:45:46.433Z,1011.34
2018-06-18T10:46:31.197Z,1011.32
2018-06-18T10:47:13.117Z,1011.3
2018-06-18T10:47:53.418Z,1011.31
2018-06-18T10:48:33.886Z,1011.31
2018-06-18T10:49:15.120Z,1011.33
2018-06-18T10:49:56.483Z,1011.27
2018-06-18T10:50:41.629Z,1011.27
2018-06-18T10:51:25.331Z,1011.34
2018-06-18T10:52:52.818Z,1011.3
2018-06-18T10:53:33.754Z,1011.3
2018-06-18T10:54:14.724Z,1011.31
2018-06-18T10:54:56.097Z,1011.29
2018-06-18T10:55:37.187Z,1011.3
2018-06-18T10:56:18.746Z,1011.29
2018-06-18T10:57:00.190Z,1011.32
2018-06-18T10:57:41.512Z,1011.31
2018-06-18T10:58:27.478Z,1011.33
2018-06-18T10:59:08.091Z,1011.33
2018-06-18T10:59:53.040Z,1011.31
2018-06-18T11:00:33.419Z,1011.35
2018-06-18T11:01:14.920Z,1011.34
2018-06-18T11:01:58.053Z,1011.32
2018-06-18T11:02:40.087Z,1011.39
2018-06-18T11:03:20.385Z,1011.35
2018-06-18T11:04:00.913Z,1011.34
2018-06-18T11:04:43.009Z,1011.36
2018-06-18T11:05:23.503Z,1011.35
2018-06-18T11:06:05.140Z,1011.32
2018-06-18T11:06:45.873Z,1011.37
2018-06-18T11:07:26.950Z,1011.41
2018-06-18T11:08:07.800Z,1011.4
2018-06-18T11:08:48.961Z,1011.4
2018-06-18T11:09:29.927Z,1011.37
2018-06-18T11:10:10.762Z,1011.36
2018-06-18T11:10:51.681Z,1011.36
2018-06-18T11:11:32.310Z,1011.37
2018-06-18T11:13:54.482Z,1011.4
2018-06-18T11:14:35.464Z,1011.42
2018-06-18T11:15:16.069Z,1011.42
2018-06-18T11:15:56.488Z,1011.4
2018-06-18T11:16:37.253Z,1011.43
2018-06-18T11:17:18.344Z,1011.4
2018-06-18T11:17:59.511Z,1011.42
2018-06-18T11:18:40.030Z,1011.41
2018-06-18T11:19:20.913Z,1011.46
2018-06-18T11:20:02.154Z,1011.47
2018-06-18T11:20:43.128Z,1011.47
2018-06-18T11:23:18.083Z,1011.52
2018-06-18T11:25:40.933Z,1011.42
2018-06-18T11:26:21.467Z,1011.42
2018-06-18T11:27:02.276Z,1011.44
2018-06-18T11:27:43.495Z,1011.41
2018-06-18T11:28:23.462Z,1011.41
2018-06-18T11:29:04.380Z,1011.46
2018-06-18T11:29:44.732Z,1011.43
2018-06-18T11:30:26.127Z,1011.52
2018-06-18T11:31:06.662Z,1011.47
2018-06-18T11:31:49.971Z,1011.48
2018-06-18T11:32:30.412Z,1011.52
2018-06-18T11:33:10.798Z,1011.51
2018-06-18T11:33:52.368Z,1011.49
2018-06-18T11:34:32.908Z,1011.5
2018-06-18T11:35:13.831Z,1011.56
2018-06-18T11:35:55.023Z,1011.51
2018-06-18T11:36:35.479Z,1011.49
2018-06-18T11:37:16.932Z,1011.51
2018-06-18T11:37:57.360Z,1011.54
2018-06-18T11:38:37.842Z,1011.54
2018-06-18T11:39:18.572Z,1011.49
2018-06-18T11:39:59.144Z,1011.52
2018-06-18T11:40:39.393Z,1011.58
2018-06-18T11:41:21.729Z,1011.55
2018-06-18T11:42:02.419Z,1011.5
2018-06-18T11:42:42.993Z,1011.5
2018-06-18T11:43:24.118Z,1011.5
2018-06-18T11:44:05.581Z,1011.49
2018-06-18T11:44:47.739Z,1011.45
2018-06-18T11:45:29.315Z,1011.48
2018-06-18T11:46:10.050Z,1011.55
2018-06-18T11:46:51.897Z,1011.47
2018-06-18T11:47:32.657Z,1011.47
2018-06-18T11:48:21.210Z,1011.47
2018-06-18T11:49:01.774Z,1011.42
2018-06-18T11:49:43.135Z,1011.48
2018-06-18T11:50:23.619Z,1011.48
2018-06-18T11:51:04.436Z,1011.46
2018-06-18T11:51:44.835Z,1011.45
2018-06-18T11:52:25.488Z,1011.47
2018-06-18T11:53:06.047Z,1011.43
2018-06-18T11:53:46.636Z,1011.49
2018-06-18T11:54:27.116Z,1011.49
2018-06-18T11:55:08.799Z,1011.46
2018-06-18T11:55:49.115Z,1011.49
2018-06-18T11:56:29.916Z,1011.46
2018-06-18T11:57:11.742Z,1011.49
2018-06-18T11:57:52.069Z,1011.46
2018-06-18T11:58:32.558Z,1011.47
2018-06-18T11:59:14.367Z,1011.5
2018-06-18T11:59:54.872Z,1011.49
2018-06-18T12:01:54.437Z,1011.54
2018-06-18T12:02:36.751Z,1011.54
2018-06-18T12:03:17.215Z,1011.54
2018-06-18T12:03:57.810Z,1011.55
2018-06-18T12:04:39.175Z,1011.55
2018-06-18T12:05:19.986Z,1011.57
2018-06-18T12:06:01.068Z,1011.53
2018-06-18T12:06:43.077Z,1011.55
2018-06-18T12:07:23.909Z,1011.52
2018-06-18T12:08:04.946Z,1011.57
2018-06-18T12:08:45.470Z,1011.58
2018-06-18T12:09:26.523Z,1011.53
2018-06-18T12:10:07.362Z,1011.56
2018-06-18T12:10:47.930Z,1011.61
2018-06-18T12:11:28.673Z,1011.64
2018-06-18T12:12:10.217Z,1011.61
2018-06-18T12:12:50.606Z,1011.63
2018-06-18T12:13:31.762Z,1011.63
2018-06-18T12:14:14.601Z,1011.63
2018-06-18T12:14:55.239Z,1011.63
2018-06-18T12:15:36.066Z,1011.59
2018-06-18T12:16:17.933Z,1011.57